createdAt,value
2022-10-01T00:01:17.767Z,12.30
2022-10-01T00:03:45.455Z,12.40
2022-10-01T00:06:17.539Z,12.40
2022-10-01T00:08:49.247Z,12.30
2022-10-01T00:11:24.514Z,12.40
2022-10-01T00:13:52.672Z,12.40
2022-10-01T00:16:23.100Z,12.40
2022-10-01T00:18:50.501Z,12.40
2022-10-01T00:21:29.509Z,12.40
2022-10-01T00:24:03.139Z,12.40
2022-10-01T00:26:32.943Z,12.40
2022-10-01T00:29:02.262Z,12.40
2022-10-01T00:31:29.970Z,12.50
2022-10-01T00:33:59.127Z,12.50
2022-10-01T00:36:26.769Z,12.50
2022-10-01T00:38:53.749Z,12.50
2022-10-01T00:41:20.699Z,12.50
2022-10-01T00:43:54.887Z,12.50
2022-10-01T00:46:27.812Z,12.60
2022-10-01T00:49:07.208Z,12.60
2022-10-01T00:51:41.060Z,12.60
2022-10-01T00:54:13.377Z,12.70
2022-10-01T00:56:41.683Z,12.70
2022-10-01T00:59:10.200Z,12.70
2022-10-01T01:01:38.978Z,12.70
2022-10-01T01:04:16.458Z,12.80
2022-10-01T01:06:57.806Z,12.80
2022-10-01T01:09:33.407Z,12.80
2022-10-01T01:12:34.027Z,12.90
2022-10-01T01:15:10.750Z,12.90
2022-10-01T01:17:53.253Z,12.90
2022-10-01T01:20:53.779Z,12.90
2022-10-01T01:23:58.484Z,12.90
2022-10-01T01:26:31.608Z,12.90
2022-10-01T01:29:04.664Z,12.90
2022-10-01T01:31:37.810Z,12.90
2022-10-01T01:34:12.552Z,12.90
2022-10-01T01:36:45.127Z,13.00
2022-10-01T01:39:15.442Z,13.00
2022-10-01T01:41:51.041Z,13.00
2022-10-01T01:44:24.997Z,13.00
2022-10-01T01:46:52.156Z,13.00
2022-10-01T01:49:21.027Z,13.10
2022-10-01T01:52:05.368Z,13.10
2022-10-01T01:54:34.572Z,13.10
2022-10-01T01:57:04.167Z,13.10
2022-10-01T01:59:35.561Z,13.20
2022-10-01T02:02:06.919Z,13.20
2022-10-01T02:04:54.709Z,13.20
2022-10-01T02:07:33.227Z,13.20
2022-10-01T02:10:39.141Z,13.30
2022-10-01T02:13:18.976Z,13.20
2022-10-01T02:15:56.930Z,13.30
2022-10-01T02:18:33.987Z,13.30
2022-10-01T02:21:05.315Z,13.30
2022-10-01T02:23:39.171Z,13.40
2022-10-01T02:26:10.419Z,13.40
2022-10-01T02:28:40.004Z,13.40
2022-10-01T02:31:07.642Z,13.40
2022-10-01T02:33:36.667Z,13.40
2022-10-01T02:36:07.331Z,13.40
2022-10-01T02:38:37.399Z,13.40
2022-10-01T02:41:09.016Z,13.40
2022-10-01T02:43:42.958Z,13.50
2022-10-01T02:46:44.589Z,13.50
2022-10-01T02:49:13.417Z,13.50
2022-10-01T02:51:55.872Z,13.50
2022-10-01T02:54:36.313Z,13.50
2022-10-01T02:57:21.628Z,13.60
2022-10-01T02:59:49.063Z,13.50
2022-10-01T03:02:16.224Z,13.50
2022-10-01T03:04:43.220Z,13.60
2022-10-01T03:07:10.165Z,13.60
2022-10-01T03:09:37.115Z,13.60
2022-10-01T03:12:04.080Z,13.60
2022-10-01T03:14:32.420Z,13.60
2022-10-01T03:16:59.542Z,13.70
2022-10-01T03:19:26.489Z,13.70
2022-10-01T03:21:53.444Z,13.80
2022-10-01T03:24:20.377Z,13.70
2022-10-01T03:26:47.232Z,13.80
2022-10-01T03:29:14.777Z,13.80
2022-10-01T03:31:41.963Z,13.80
2022-10-01T03:34:09.219Z,13.80
2022-10-01T03:36:36.156Z,13.80
2022-10-01T03:39:03.147Z,13.80
2022-10-01T03:41:30.045Z,13.90
2022-10-01T03:44:00.417Z,13.90
2022-10-01T03:46:27.680Z,13.90
2022-10-01T03:48:55.913Z,13.90
2022-10-01T03:51:23.395Z,13.90
2022-10-01T03:53:50.421Z,13.90
2022-10-01T03:56:17.458Z,13.90
2022-10-01T03:58:44.356Z,13.90
2022-10-01T04:01:11.375Z,13.90
2022-10-01T04:03:38.326Z,13.90
2022-10-01T04:06:05.405Z,13.90
2022-10-01T04:08:32.305Z,13.90
2022-10-01T04:11:01.008Z,13.90
2022-10-01T04:13:29.977Z,14.00
2022-10-01T04:15:56.951Z,14.00
2022-10-01T04:18:24.138Z,14.00
2022-10-01T04:20:51.101Z,14.00
2022-10-01T04:23:18.239Z,14.10
2022-10-01T04:25:45.422Z,14.10
2022-10-01T04:28:13.630Z,14.10
2022-10-01T04:30:42.790Z,14.10
2022-10-01T04:33:13.208Z,14.10
2022-10-01T04:35:40.240Z,14.20
2022-10-01T04:38:12.432Z,14.20
2022-10-01T04:40:39.503Z,14.20
2022-10-01T04:43:10.619Z,14.20
2022-10-01T04:45:38.181Z,14.20
2022-10-01T04:48:05.556Z,14.20
2022-10-01T04:50:32.681Z,14.20
2022-10-01T04:52:59.801Z,14.20
2022-10-01T04:55:26.991Z,14.20
2022-10-01T04:57:53.968Z,14.20
2022-10-01T05:00:24.601Z,14.20
2022-10-01T05:02:52.320Z,14.20
2022-10-01T05:05:21.566Z,14.30
2022-10-01T05:07:49.233Z,14.30
2022-10-01T05:10:18.816Z,14.30
2022-10-01T05:12:46.961Z,14.30
2022-10-01T05:15:15.088Z,14.30
2022-10-01T05:17:42.517Z,14.40
2022-10-01T05:20:19.133Z,14.40
2022-10-01T05:22:47.367Z,14.30
2022-10-01T05:25:14.671Z,14.30
2022-10-01T05:27:41.965Z,14.40
2022-10-01T05:30:10.753Z,14.40
2022-10-01T05:32:38.621Z,14.40
2022-10-01T05:35:08.323Z,14.40
2022-10-01T05:37:35.876Z,14.40
2022-10-01T05:40:03.771Z,14.40
2022-10-01T05:42:30.755Z,14.40
2022-10-01T05:44:57.673Z,14.40
2022-10-01T05:47:24.756Z,14.40
2022-10-01T05:49:51.653Z,14.40
2022-10-01T05:52:18.586Z,14.40
2022-10-01T05:54:45.447Z,14.40
2022-10-01T05:57:13.095Z,14.40
2022-10-01T05:59:40.300Z,14.40
2022-10-01T06:02:09.965Z,14.40
2022-10-01T06:04:40.986Z,14.40
2022-10-01T06:07:08.215Z,14.40
2022-10-01T06:09:35.113Z,14.40
2022-10-01T06:12:02.715Z,14.40
2022-10-01T06:14:29.802Z,14.40
2022-10-01T06:16:56.881Z,14.40
2022-10-01T06:19:23.907Z,14.40
2022-10-01T06:21:51.992Z,14.40
2022-10-01T06:24:19.076Z,14.40
2022-10-01T06:26:46.045Z,14.40
2022-10-01T06:29:12.981Z,14.40
2022-10-01T06:31:40.055Z,14.50
2022-10-01T06:34:07.125Z,14.50
2022-10-01T06:36:34.518Z,14.40
2022-10-01T06:39:01.528Z,14.40
2022-10-01T06:41:28.539Z,14.40
2022-10-01T06:43:55.445Z,14.40
2022-10-01T06:46:22.541Z,14.40
2022-10-01T06:48:49.897Z,14.40
2022-10-01T06:51:36.968Z,14.40
2022-10-01T06:54:04.731Z,14.40
2022-10-01T06:56:31.619Z,14.40
2022-10-01T06:58:58.524Z,14.50
2022-10-01T07:01:25.578Z,14.40
2022-10-01T07:03:54.526Z,14.40
2022-10-01T07:06:21.412Z,14.50
2022-10-01T07:08:51.386Z,14.50
2022-10-01T07:11:19.145Z,14.50
2022-10-01T07:13:46.119Z,14.50
2022-10-01T07:16:13.235Z,14.50
2022-10-01T07:18:40.217Z,14.50
2022-10-01T07:21:07.265Z,14.50
2022-10-01T07:23:34.179Z,14.50
2022-10-01T07:26:03.715Z,14.50
2022-10-01T07:28:30.709Z,14.50
2022-10-01T07:31:07.268Z,14.50
2022-10-01T07:33:34.508Z,14.50
2022-10-01T07:36:02.993Z,14.50
2022-10-01T07:38:30.163Z,14.50
2022-10-01T07:40:58.908Z,14.50
2022-10-01T07:43:26.062Z,14.50
2022-10-01T07:45:55.208Z,14.50
2022-10-01T07:48:22.330Z,14.50
2022-10-01T07:50:49.634Z,14.60
2022-10-01T07:53:17.204Z,14.60
2022-10-01T07:55:44.876Z,14.60
2022-10-01T07:58:12.608Z,14.70
2022-10-01T08:00:40.064Z,14.80
2022-10-01T08:03:07.119Z,14.80
2022-10-01T08:05:36.165Z,14.90
2022-10-01T08:08:07.542Z,14.90
2022-10-01T08:10:36.515Z,15.00
2022-10-01T08:13:14.444Z,15.00
2022-10-01T08:15:46.724Z,15.10
2022-10-01T08:18:14.105Z,15.20
2022-10-01T08:20:41.194Z,15.20
2022-10-01T08:23:10.621Z,15.30
2022-10-01T08:25:38.146Z,15.30
2022-10-01T08:28:06.566Z,15.40
2022-10-01T08:30:33.544Z,15.40
2022-10-01T08:33:01.916Z,15.50
2022-10-01T08:35:30.215Z,15.50
2022-10-01T08:38:04.108Z,15.50
2022-10-01T08:40:36.806Z,15.60
2022-10-01T08:43:12.877Z,15.60
2022-10-01T08:45:45.445Z,15.70
2022-10-01T08:48:42.876Z,15.70
2022-10-01T08:51:33.283Z,15.80
2022-10-01T08:54:16.462Z,15.90
2022-10-01T08:56:47.566Z,15.90
2022-10-01T08:59:51.099Z,16.00
2022-10-01T09:02:19.375Z,16.10
2022-10-01T09:04:48.151Z,16.10
2022-10-01T09:07:41.467Z,16.20
2022-10-01T09:10:20.293Z,16.30
2022-10-01T09:13:08.735Z,16.30
2022-10-01T09:15:58.080Z,16.40
2022-10-01T09:19:02.707Z,16.40
2022-10-01T09:21:50.549Z,16.40
2022-10-01T09:24:32.321Z,16.40
2022-10-01T09:27:00.808Z,16.40
2022-10-01T09:29:39.228Z,16.40
2022-10-01T09:32:07.027Z,16.40
2022-10-01T09:34:43.104Z,16.40
2022-10-01T09:37:30.303Z,16.40
2022-10-01T09:40:14.915Z,16.40
2022-10-01T09:42:42.499Z,16.40
2022-10-01T09:45:17.045Z,16.40
2022-10-01T09:47:51.149Z,16.40
2022-10-01T09:50:41.129Z,16.40
2022-10-01T09:53:18.192Z,16.50
2022-10-01T09:55:52.338Z,16.60
2022-10-01T09:58:23.882Z,16.70
2022-10-01T10:00:53.634Z,16.80
2022-10-01T10:03:30.782Z,16.90
2022-10-01T10:06:02.166Z,16.90
2022-10-01T10:08:35.604Z,17.00
2022-10-01T10:11:06.680Z,17.10
2022-10-01T10:13:40.709Z,17.10
2022-10-01T10:16:26.322Z,17.20
2022-10-01T10:19:02.679Z,17.20
2022-10-01T10:21:34.906Z,17.20
2022-10-01T10:24:06.872Z,17.30
2022-10-01T10:26:38.803Z,17.40
2022-10-01T10:29:24.301Z,17.40
2022-10-01T10:31:51.708Z,17.40
2022-10-01T10:34:31.922Z,17.50
2022-10-01T10:37:05.262Z,17.60
2022-10-01T10:39:36.338Z,17.60
2022-10-01T10:42:05.786Z,17.70
2022-10-01T10:44:38.851Z,17.90
2022-10-01T10:47:13.637Z,17.90
2022-10-01T10:50:04.167Z,18.00
2022-10-01T10:52:36.927Z,18.10
2022-10-01T10:55:28.944Z,18.20
2022-10-01T10:57:58.003Z,18.30
2022-10-01T11:00:26.375Z,18.30
2022-10-01T11:03:00.923Z,18.30
2022-10-01T11:05:32.122Z,18.20
2022-10-01T11:08:04.084Z,18.20
2022-10-01T11:10:43.066Z,18.20
2022-10-01T11:13:29.331Z,18.10
2022-10-01T11:16:20.933Z,18.20
2022-10-01T11:19:01.701Z,18.20
2022-10-01T11:21:48.422Z,18.40
2022-10-01T11:24:33.614Z,18.40
2022-10-01T11:27:03.557Z,18.40
2022-10-01T11:29:54.862Z,18.40
2022-10-01T11:32:31.219Z,18.40
2022-10-01T11:35:18.791Z,18.50
2022-10-01T11:38:06.621Z,18.50
2022-10-01T11:40:41.179Z,18.50
2022-10-01T11:43:23.302Z,18.50
2022-10-01T11:45:56.483Z,18.60
2022-10-01T11:48:33.964Z,18.70
2022-10-01T11:51:09.508Z,18.80
2022-10-01T11:53:51.216Z,18.90
2022-10-01T11:56:42.807Z,19.20
2022-10-01T11:59:20.270Z,19.30
2022-10-01T12:02:09.265Z,19.30
2022-10-01T12:04:52.439Z,19.30
2022-10-01T12:07:36.413Z,19.20
2022-10-01T12:10:39.117Z,19.10
2022-10-01T12:13:32.874Z,18.90
2022-10-01T12:16:18.325Z,18.90
2022-10-01T12:18:59.444Z,18.80
2022-10-01T12:21:33.800Z,18.70
2022-10-01T12:24:31.735Z,18.60
2022-10-01T12:27:19.867Z,18.60
2022-10-01T12:29:49.551Z,18.50
2022-10-01T12:32:31.566Z,18.60
2022-10-01T12:35:18.764Z,18.70
2022-10-01T12:38:03.791Z,18.90
2022-10-01T12:40:31.571Z,19.00
2022-10-01T12:43:28.611Z,19.10
2022-10-01T12:46:32.051Z,19.20
2022-10-01T12:49:10.908Z,19.30
2022-10-01T12:51:38.271Z,19.40
2022-10-01T12:54:32.220Z,19.50
2022-10-01T12:57:37.399Z,19.50
2022-10-01T13:00:08.896Z,19.60
2022-10-01T13:02:48.011Z,19.60
2022-10-01T13:05:44.432Z,19.70
2022-10-01T13:08:17.164Z,19.70
2022-10-01T13:11:20.754Z,19.70
2022-10-01T13:13:52.256Z,19.50
2022-10-01T13:16:38.231Z,19.40
2022-10-01T13:19:05.504Z,19.30
2022-10-01T13:21:42.165Z,19.20
2022-10-01T13:24:44.820Z,19.20
2022-10-01T13:27:24.540Z,19.10
2022-10-01T13:30:06.028Z,19.10
2022-10-01T13:32:34.244Z,19.00
2022-10-01T13:35:21.489Z,18.90
2022-10-01T13:37:48.458Z,18.90
2022-10-01T13:40:27.495Z,18.80
2022-10-01T13:42:59.052Z,18.80
2022-10-01T13:45:30.890Z,18.70
2022-10-01T13:48:29.705Z,18.60
2022-10-01T13:51:07.242Z,18.50
2022-10-01T13:53:37.059Z,18.50
2022-10-01T13:56:05.295Z,18.40
2022-10-01T13:58:38.481Z,18.40
2022-10-01T14:01:26.378Z,18.40
2022-10-01T14:04:14.936Z,18.40
2022-10-01T14:06:54.802Z,18.40
2022-10-01T14:09:31.543Z,18.50
2022-10-01T14:12:27.310Z,18.70
2022-10-01T14:15:18.768Z,18.90
2022-10-01T14:17:50.119Z,18.90
2022-10-01T14:20:24.078Z,18.90
2022-10-01T14:22:50.997Z,18.90
2022-10-01T14:25:49.198Z,18.90
2022-10-01T14:29:05.808Z,18.90
2022-10-01T14:32:08.671Z,18.90
2022-10-01T14:35:01.583Z,18.80
2022-10-01T14:37:29.847Z,18.90
2022-10-01T14:40:18.744Z,18.90
2022-10-01T14:43:00.000Z,18.90
2022-10-01T14:45:27.247Z,18.90
2022-10-01T14:48:05.489Z,18.90
2022-10-01T14:50:37.674Z,18.90
2022-10-01T14:53:05.872Z,18.90
2022-10-01T14:55:35.757Z,18.80
2022-10-01T14:58:04.704Z,18.70
2022-10-01T15:00:33.345Z,18.60
2022-10-01T15:03:15.642Z,18.60
2022-10-01T15:05:44.016Z,18.50
2022-10-01T15:08:24.312Z,18.50
2022-10-01T15:11:00.722Z,18.50
2022-10-01T15:13:32.112Z,18.50
2022-10-01T15:15:59.768Z,18.50
2022-10-01T15:18:27.049Z,18.50
2022-10-01T15:20:57.768Z,18.50
2022-10-01T15:23:27.516Z,18.50
2022-10-01T15:25:56.697Z,18.50
2022-10-01T15:28:32.110Z,18.50
2022-10-01T15:31:01.223Z,18.50
2022-10-01T15:33:36.246Z,18.50
2022-10-01T15:36:05.856Z,18.60
2022-10-01T15:38:33.876Z,18.50
2022-10-01T15:41:26.642Z,18.50
2022-10-01T15:43:50.462Z,18.60
2022-10-01T15:46:29.950Z,18.60
2022-10-01T15:49:12.261Z,18.60
2022-10-01T15:52:11.400Z,18.60
2022-10-01T15:54:41.324Z,18.60
2022-10-01T15:57:09.265Z,18.60
2022-10-01T15:59:39.515Z,18.60
2022-10-01T16:02:18.675Z,18.60
2022-10-01T16:04:46.961Z,18.60
2022-10-01T16:07:31.038Z,18.60
2022-10-01T16:09:59.208Z,18.60
2022-10-01T16:12:29.364Z,18.50
2022-10-01T16:15:00.820Z,18.50
2022-10-01T16:17:58.682Z,18.50
2022-10-01T16:20:37.634Z,18.40
2022-10-01T16:23:33.088Z,18.40
2022-10-01T16:26:04.841Z,18.30
2022-10-01T16:28:34.511Z,18.20
2022-10-01T16:31:04.012Z,18.10
2022-10-01T16:33:30.978Z,18.00
2022-10-01T16:36:26.282Z,17.90
2022-10-01T16:38:53.723Z,17.90
2022-10-01T16:41:26.206Z,17.80
2022-10-01T16:43:56.227Z,17.80
2022-10-01T16:46:23.237Z,17.70
2022-10-01T16:48:51.769Z,17.70
2022-10-01T16:51:19.689Z,17.60
2022-10-01T16:53:47.106Z,17.60
2022-10-01T16:56:14.835Z,17.50
2022-10-01T16:58:43.269Z,17.50
2022-10-01T17:01:14.703Z,17.50
2022-10-01T17:03:41.826Z,17.40
2022-10-01T17:06:08.815Z,17.40
2022-10-01T17:08:35.780Z,17.40
2022-10-01T17:11:03.345Z,17.40
2022-10-01T17:13:35.596Z,17.40
2022-10-01T17:16:05.001Z,17.30
2022-10-01T17:18:32.061Z,17.30
2022-10-01T17:20:59.582Z,17.30
2022-10-01T17:23:26.519Z,17.20
2022-10-01T17:25:53.635Z,17.20
2022-10-01T17:28:21.039Z,17.10
2022-10-01T17:30:49.241Z,17.10
2022-10-01T17:33:19.517Z,17.00
2022-10-01T17:35:54.736Z,17.00
2022-10-01T17:38:22.794Z,17.00
2022-10-01T17:40:55.430Z,16.90
2022-10-01T17:43:23.726Z,16.90
2022-10-01T17:46:00.117Z,16.90
2022-10-01T17:48:28.236Z,16.90
2022-10-01T17:51:00.569Z,16.80
2022-10-01T17:53:34.075Z,16.80
2022-10-01T17:56:12.341Z,16.80
2022-10-01T17:58:42.941Z,16.70
2022-10-01T18:01:14.882Z,16.70
2022-10-01T18:03:42.203Z,16.60
2022-10-01T18:06:13.512Z,16.60
2022-10-01T18:08:54.772Z,16.50
2022-10-01T18:11:24.333Z,16.50
2022-10-01T18:13:52.593Z,16.50
2022-10-01T18:16:19.917Z,16.40
2022-10-01T18:21:34.928Z,16.40
2022-10-01T18:24:04.721Z,16.30
2022-10-01T18:26:33.145Z,16.30
2022-10-01T18:29:00.504Z,16.30
2022-10-01T18:31:34.543Z,16.20
2022-10-01T18:34:03.797Z,16.20
2022-10-01T18:36:37.154Z,16.20
2022-10-01T18:39:07.999Z,16.20
2022-10-01T18:41:39.595Z,16.10
2022-10-01T18:44:19.943Z,16.10
2022-10-01T18:46:50.036Z,16.10
2022-10-01T18:49:19.863Z,16.00
2022-10-01T18:51:51.938Z,16.00
2022-10-01T18:54:25.677Z,16.00
2022-10-01T18:57:15.656Z,16.00
2022-10-01T18:59:55.173Z,15.90
2022-10-01T19:02:55.749Z,15.90
2022-10-01T19:05:46.001Z,15.90
2022-10-01T19:08:42.621Z,15.90
2022-10-01T19:11:53.281Z,15.90
2022-10-01T19:14:37.032Z,15.90
2022-10-01T19:17:12.987Z,15.90
2022-10-01T19:20:24.901Z,15.90
2022-10-01T19:23:02.592Z,15.80
2022-10-01T19:25:47.639Z,15.80
2022-10-01T19:28:43.960Z,15.80
2022-10-01T19:31:28.729Z,15.80
2022-10-01T19:34:11.120Z,15.80
2022-10-01T19:36:41.581Z,15.80
2022-10-01T19:39:20.299Z,15.70
2022-10-01T19:42:16.476Z,15.70
2022-10-01T19:45:04.739Z,15.70
2022-10-01T19:47:34.405Z,15.70
2022-10-01T19:50:07.172Z,15.70
2022-10-01T19:52:38.314Z,15.60
2022-10-01T19:55:13.935Z,15.60
2022-10-01T19:57:43.716Z,15.60
2022-10-01T20:00:19.658Z,15.60
2022-10-01T20:02:51.302Z,15.60
2022-10-01T20:05:28.976Z,15.60
2022-10-01T20:08:15.889Z,15.60
2022-10-01T20:10:48.567Z,15.60
2022-10-01T20:13:39.083Z,15.50
2022-10-01T20:16:40.843Z,15.50
2022-10-01T20:19:27.226Z,15.50
2022-10-01T20:22:03.517Z,15.50
2022-10-01T20:25:04.185Z,15.50
2022-10-01T20:27:49.349Z,15.40
2022-10-01T20:30:21.272Z,15.40
2022-10-01T20:33:01.609Z,15.40
2022-10-01T20:35:47.020Z,15.40
2022-10-01T20:38:21.561Z,15.40
2022-10-01T20:40:55.549Z,15.40
2022-10-01T20:43:37.273Z,15.40
2022-10-01T20:46:16.545Z,15.40
2022-10-01T20:48:49.543Z,15.40
2022-10-01T20:51:42.916Z,15.40
2022-10-01T20:54:24.887Z,15.40
2022-10-01T20:57:20.407Z,15.40
2022-10-01T20:59:53.471Z,15.40
2022-10-01T21:02:20.392Z,15.40
2022-10-01T21:05:06.792Z,15.40
2022-10-01T21:07:48.847Z,15.40
2022-10-01T21:10:40.171Z,15.30
2022-10-01T21:13:33.852Z,15.40
2022-10-01T21:16:15.886Z,15.40
2022-10-01T21:19:14.067Z,15.40
2022-10-01T21:22:03.934Z,15.40
2022-10-01T21:25:03.227Z,15.30
2022-10-01T21:27:58.847Z,15.30
2022-10-01T21:30:32.160Z,15.40
2022-10-01T21:33:12.328Z,15.30
2022-10-01T21:35:47.904Z,15.30
2022-10-01T21:38:39.946Z,15.30
2022-10-01T21:41:13.104Z,15.40
2022-10-01T21:43:45.841Z,15.40
2022-10-01T21:46:46.081Z,15.40
2022-10-01T21:49:34.098Z,15.30
2022-10-01T21:52:27.431Z,15.30
2022-10-01T21:55:21.340Z,15.30
2022-10-01T21:58:07.725Z,15.30
2022-10-01T22:00:34.772Z,15.40
2022-10-01T22:03:10.889Z,15.40
2022-10-01T22:05:41.100Z,15.30
2022-10-01T22:08:37.252Z,15.30
2022-10-01T22:11:10.173Z,15.40
2022-10-01T22:13:46.171Z,15.30
2022-10-01T22:16:16.985Z,15.30
2022-10-01T22:19:00.651Z,15.30
2022-10-01T22:21:44.708Z,15.30
2022-10-01T22:24:46.319Z,15.30
2022-10-01T22:27:19.153Z,15.30
2022-10-01T22:29:58.439Z,15.30
2022-10-01T22:32:29.366Z,15.30
2022-10-01T22:35:02.995Z,15.30
2022-10-01T22:38:02.138Z,15.40
2022-10-01T22:40:42.214Z,15.40
2022-10-01T22:43:12.992Z,15.40
2022-10-01T22:46:06.738Z,15.40
2022-10-01T22:48:46.053Z,15.40
2022-10-01T22:51:24.948Z,15.30
2022-10-01T22:54:20.196Z,15.40
2022-10-01T22:56:53.178Z,15.40
2022-10-01T22:59:20.122Z,15.40
2022-10-01T23:02:08.938Z,15.40
2022-10-01T23:04:47.211Z,15.40
2022-10-01T23:08:04.775Z,15.40
2022-10-01T23:11:02.451Z,15.40
2022-10-01T23:14:09.948Z,15.40
2022-10-01T23:16:54.806Z,15.40
2022-10-01T23:19:47.226Z,15.40
2022-10-01T23:22:35.510Z,15.40
2022-10-01T23:25:14.301Z,15.40
2022-10-01T23:28:07.822Z,15.40
2022-10-01T23:31:06.898Z,15.40
2022-10-01T23:34:09.052Z,15.40
2022-10-01T23:36:47.008Z,15.40
2022-10-01T23:39:26.051Z,15.40
2022-10-01T23:41:58.820Z,15.40
2022-10-01T23:44:49.984Z,15.40
2022-10-01T23:47:22.205Z,15.40
2022-10-01T23:49:53.885Z,15.40
2022-10-01T23:52:32.160Z,15.40
2022-10-01T23:55:24.764Z,15.40
2022-10-01T23:58:02.341Z,15.40
